Time;durP1;ratioP1;P1;durP2;ratioP2;P2;SDS_P1;SDS_P2;PMS_P1;PMS_P2;Temp;Humidity;BMP_temperature;BMP_pressure;BME280_temperature;BME280_humidity;BME280_pressure;Samples;Min_cycle;Max_cycle;Signal;HPM_P1;HPM_P2
2023/09/09 00:01:32;;;;;;;13.60;10.50;;;;;;;;;;4988656;28;20292;-45
2023/09/09 00:03:59;;;;;;;9.57;8.53;;;;;;;;;;4997087;28;20217;-43
2023/09/09 00:06:27;;;;;;;8.97;7.97;;;;;;;;;;4984258;28;20245;-41
2023/09/09 00:08:55;;;;;;;9.23;8.20;;;;;;;;;;4986742;28;20197;-43
2023/09/09 00:11:22;;;;;;;10.70;8.47;;;;;;;;;;4986811;28;20695;-41
2023/09/09 00:13:51;;;;;;;8.63;7.73;;;;;;;;;;4970032;28;20228;-42
2023/09/09 00:16:18;;;;;;;9.37;8.37;;;;;;;;;;4988554;28;20228;-42
2023/09/09 00:18:46;;;;;;;8.60;7.07;;;;;;;;;;4994278;28;20646;-41
2023/09/09 00:21:14;;;;;;;7.87;7.13;;;;;;;;;;4992608;28;20260;-40
2023/09/09 00:23:41;;;;;;;7.60;6.90;;;;;;;;;;4982760;28;22933;-44
2023/09/09 00:26:09;;;;;;;8.70;6.97;;;;;;;;;;4990055;28;20244;-42
2023/09/09 00:28:37;;;;;;;7.87;7.07;;;;;;;;;;4987673;28;20197;-42
2023/09/09 00:31:04;;;;;;;6.97;6.37;;;;;;;;;;4969533;28;20213;-41
2023/09/09 00:33:31;;;;;;;7.57;6.77;;;;;;;;;;4982920;28;20224;-43
2023/09/09 00:36:01;;;;;;;6.93;6.30;;;;;;;;;;4987039;28;20259;-44
2023/09/09 00:38:29;;;;;;;7.47;6.70;;;;;;;;;;4984705;28;20240;-41
2023/09/09 00:41:13;;;;;;;9.70;6.50;;;;;;;;;;4997002;28;20213;-43
2023/09/09 00:43:41;;;;;;;7.53;6.40;;;;;;;;;;4985308;28;20208;-44
2023/09/09 00:46:09;;;;;;;7.60;6.90;;;;;;;;;;4960709;28;20218;-45
2023/09/09 00:48:36;;;;;;;6.70;6.10;;;;;;;;;;4986695;28;20825;-43
2023/09/09 00:51:04;;;;;;;9.10;6.60;;;;;;;;;;4986178;28;20730;-42
2023/09/09 00:53:32;;;;;;;9.23;7.53;;;;;;;;;;4987589;28;20221;-45
2023/09/09 00:56:01;;;;;;;7.30;6.60;;;;;;;;;;4984166;28;20263;-44
2023/09/09 00:58:32;;;;;;;7.60;6.80;;;;;;;;;;4989705;28;20300;-41
2023/09/09 01:01:00;;;;;;;7.03;6.43;;;;;;;;;;4993115;28;20204;-42
2023/09/09 01:03:31;;;;;;;6.97;6.37;;;;;;;;;;4970586;28;20217;-42
2023/09/09 01:06:01;;;;;;;7.57;6.87;;;;;;;;;;4990142;28;20198;-42
2023/09/09 01:08:28;;;;;;;7.00;6.33;;;;;;;;;;4989233;28;20250;-42
2023/09/09 01:10:56;;;;;;;7.47;6.77;;;;;;;;;;4977780;28;20201;-42
2023/09/09 01:13:23;;;;;;;7.60;6.90;;;;;;;;;;4986749;28;20332;-41
2023/09/09 01:15:52;;;;;;;7.53;6.83;;;;;;;;;;4984701;28;20276;-44
2023/09/09 01:18:19;;;;;;;6.70;6.10;;;;;;;;;;4966523;28;20622;-44
2023/09/09 01:20:51;;;;;;;7.20;6.60;;;;;;;;;;4986063;28;20251;-44
2023/09/09 01:23:19;;;;;;;7.83;6.87;;;;;;;;;;4975494;28;20231;-42
2023/09/09 01:25:46;;;;;;;7.83;7.03;;;;;;;;;;4980025;28;20213;-43
2023/09/09 01:28:14;;;;;;;7.67;6.90;;;;;;;;;;4988102;28;20197;-43
2023/09/09 01:30:42;;;;;;;7.63;6.83;;;;;;;;;;4986591;28;20190;-43
2023/09/09 01:33:09;;;;;;;8.63;6.97;;;;;;;;;;4992461;28;20217;-43
2023/09/09 01:35:36;;;;;;;7.30;6.70;;;;;;;;;;4965594;28;20201;-42
2023/09/09 01:38:04;;;;;;;8.23;7.37;;;;;;;;;;4986737;28;20293;-45
2023/09/09 01:40:32;;;;;;;7.90;7.10;;;;;;;;;;4976418;28;20189;-44
2023/09/09 01:42:59;;;;;;;7.40;6.70;;;;;;;;;;4980858;28;20283;-45
2023/09/09 01:45:27;;;;;;;7.30;6.60;;;;;;;;;;4979928;28;20887;-44
2023/09/09 01:47:54;;;;;;;7.40;6.77;;;;;;;;;;4984419;28;20213;-43
2023/09/09 01:50:21;;;;;;;7.50;6.90;;;;;;;;;;4966857;28;20229;-42
2023/09/09 01:52:48;;;;;;;7.70;7.00;;;;;;;;;;4990603;28;20220;-43
2023/09/09 01:55:15;;;;;;;7.77;7.07;;;;;;;;;;4972461;28;20216;-40
2023/09/09 01:57:44;;;;;;;7.20;6.60;;;;;;;;;;4971520;28;20405;-41
2023/09/09 02:00:12;;;;;;;7.63;6.93;;;;;;;;;;4967147;28;20212;-55
2023/09/09 02:02:43;;;;;;;6.83;6.33;;;;;;;;;;4975421;28;20301;-45
2023/09/09 02:05:11;;;;;;;7.70;6.83;;;;;;;;;;4959367;28;20307;-55
2023/09/09 02:07:38;;;;;;;7.40;6.80;;;;;;;;;;4983437;28;20209;-46
2023/09/09 02:10:06;;;;;;;6.93;6.33;;;;;;;;;;4982516;28;20261;-50
2023/09/09 02:12:34;;;;;;;9.40;7.40;;;;;;;;;;4966617;28;20224;-46
2023/09/09 02:15:02;;;;;;;7.70;6.90;;;;;;;;;;4983657;28;20608;-54
2023/09/09 02:17:36;;;;;;;10.33;7.43;;;;;;;;;;4971667;28;20314;-46
2023/09/09 02:20:05;;;;;;;8.53;7.73;;;;;;;;;;4963975;28;20218;-48
2023/09/09 02:22:32;;;;;;;8.03;7.30;;;;;;;;;;4985902;28;20272;-44
2023/09/09 02:25:00;;;;;;;7.47;6.83;;;;;;;;;;4985505;28;20201;-50
2023/09/09 02:27:28;;;;;;;8.93;6.73;;;;;;;;;;4982851;28;22343;-46
2023/09/09 02:29:55;;;;;;;8.13;7.33;;;;;;;;;;4992076;28;20197;-46
2023/09/09 02:32:23;;;;;;;7.73;7.07;;;;;;;;;;4965066;28;20194;-47
2023/09/09 02:34:51;;;;;;;7.40;6.80;;;;;;;;;;4993903;28;20292;-47
2023/09/09 02:37:19;;;;;;;7.17;6.47;;;;;;;;;;4963252;28;20204;-48
2023/09/09 02:39:47;;;;;;;8.00;7.20;;;;;;;;;;4991259;28;20193;-44
2023/09/09 02:42:15;;;;;;;8.27;7.47;;;;;;;;;;4979772;28;20205;-51
2023/09/09 02:44:42;;;;;;;7.87;7.10;;;;;;;;;;4992007;28;20229;-47
2023/09/09 02:47:09;;;;;;;8.17;7.47;;;;;;;;;;4973565;28;20202;-53
2023/09/09 02:49:38;;;;;;;8.53;7.73;;;;;;;;;;4980233;28;20190;-50
2023/09/09 02:52:06;;;;;;;7.97;7.17;;;;;;;;;;4965771;28;20235;-53
2023/09/09 02:54:37;;;;;;;7.50;6.90;;;;;;;;;;4985774;28;20213;-49
2023/09/09 02:57:05;;;;;;;7.77;6.93;;;15.80;99.90;;;;;;4994507;28;20267;-55
2023/09/09 02:59:33;;;;;;;8.00;7.30;;;15.80;99.90;;;;;;4978846;28;21596;-53
2023/09/09 03:02:00;;;;;;;9.07;7.17;;;15.60;99.90;;;;;;4986717;28;20197;-57
2023/09/09 03:04:27;;;;;;;7.73;7.03;;;15.60;99.90;;;;;;4972186;28;20333;-53
2023/09/09 03:06:55;;;;;;;8.20;7.30;;;15.70;99.90;;;;;;4976944;28;20208;-51
2023/09/09 03:09:22;;;;;;;8.53;6.87;;;15.60;99.90;;;;;;4990462;28;20266;-47
2023/09/09 03:11:53;;;;;;;8.60;7.67;;;;;;;;;;4988187;28;20205;-54
2023/09/09 03:14:20;;;;;;;7.70;7.00;;;;;;;;;;4981719;28;20768;-48
2023/09/09 03:16:48;;;;;;;7.10;6.40;;;;;;;;;;4993402;28;20233;-53
2023/09/09 03:19:15;;;;;;;8.67;7.60;;;;;;;;;;4987112;28;20302;-56
2023/09/09 03:21:42;;;;;;;7.40;6.70;;;;;;;;;;4994661;28;20189;-50
2023/09/09 03:24:11;;;;;;;8.03;7.23;;;;;;;;;;4963798;28;20229;-55
2023/09/09 03:26:38;;;;;;;10.50;7.40;;;;;;;;;;4981019;28;20193;-53
2023/09/09 03:29:05;;;;;;;7.83;7.13;;;;;;;;;;4994398;28;20243;-55
2023/09/09 03:31:33;;;;;;;7.77;7.07;;;;;;;;;;4994573;28;20255;-52
2023/09/09 03:34:01;;;;;;;8.80;7.93;;;;;;;;;;4982671;28;20225;-49
2023/09/09 03:36:28;;;;;;;8.37;6.97;;;;;;;;;;4975746;28;20204;-51
2023/09/09 03:38:55;;;;;;;8.57;7.70;;;;;;;;;;4963838;28;20249;-48
2023/09/09 03:41:24;;;;;;;8.10;7.40;;;;;;;;;;4991598;28;20188;-50
2023/09/09 03:43:51;;;;;;;7.97;6.90;;;;;;;;;;4992412;28;20220;-54
2023/09/09 03:46:18;;;;;;;8.30;7.50;;;;;;;;;;4982413;28;20202;-49
2023/09/09 03:48:46;;;;;;;9.70;7.40;;;;;;;;;;4993176;28;20727;-51
2023/09/09 03:51:14;;;;;;;8.07;7.30;;;;;;;;;;4979717;28;20627;-54
2023/09/09 03:53:41;;;;;;;8.60;7.80;;;;;;;;;;4973736;28;20254;-50
2023/09/09 03:56:08;;;;;;;8.67;7.47;;;;;;;;;;4989448;28;20255;-53
2023/09/09 03:58:37;;;;;;;8.80;8.03;;;;;;;;;;4992946;28;20212;-47
2023/09/09 04:01:05;;;;;;;9.40;7.67;;;;;;;;;;4975914;28;20272;-54
2023/09/09 04:03:34;;;;;;;10.17;8.87;;;;;;;;;;4987944;28;20286;-54
2023/09/09 04:06:05;;;;;;;9.07;8.07;;;;;;;;;;5000008;28;20192;-56
2023/09/09 04:08:33;;;;;;;8.63;7.70;;;;;;;;;;4964697;28;20299;-53
2023/09/09 04:11:01;;;;;;;8.47;7.17;;;;;;;;;;4986767;28;20613;-54
2023/09/09 04:13:28;;;;;;;8.63;7.77;;;;;;;;;;4973280;28;20229;-47
2023/09/09 04:15:58;;;;;;;12.30;7.73;;;;;;;;;;4975672;28;20828;-50
2023/09/09 04:18:25;;;;;;;8.03;7.33;;;;;;;;;;4986038;28;20209;-49
2023/09/09 04:20:53;;;;;;;8.37;7.60;;;;;;;;;;4985782;28;20198;-47
2023/09/09 04:23:20;;;;;;;7.67;7.00;;;;;;;;;;4976681;28;20227;-48
2023/09/09 04:25:47;;;;;;;7.50;6.80;;;;;;;;;;4964601;28;20271;-56
2023/09/09 04:28:15;;;;;;;8.13;7.33;;;;;;;;;;4985799;28;20219;-55
2023/09/09 04:30:46;;;;;;;8.60;7.80;;;;;;;;;;4984409;28;20204;-56
2023/09/09 04:33:15;;;;;;;8.30;7.37;;;;;;;;;;4986927;28;20361;-49
2023/09/09 04:35:45;;;;;;;8.60;7.80;;;;;;;;;;4985872;28;20209;-54
2023/09/09 04:38:13;;;;;;;8.47;7.67;;;;;;;;;;4981973;28;20600;-50
2023/09/09 04:40:42;;;;;;;7.67;6.97;;;;;;;;;;4973286;28;20212;-54
2023/09/09 04:43:10;;;;;;;8.03;7.27;;;;;;;;;;4994986;28;20632;-49
2023/09/09 04:45:38;;;;;;;8.67;7.80;;;;;;;;;;4994145;28;20193;-55
2023/09/09 04:48:06;;;;;;;8.60;7.80;;;;;;;;;;4981070;28;20898;-52
2023/09/09 04:50:35;;;;;;;8.23;7.47;;;;;;;;;;4988533;28;20304;-54
2023/09/09 04:53:04;;;;;;;8.43;7.63;;;;;;;;;;4979483;28;20233;-53
2023/09/09 04:55:31;;;;;;;8.00;7.20;;;;;;;;;;4963106;28;20209;-50
2023/09/09 04:57:59;;;;;;;7.93;7.20;;;;;;;;;;4986585;28;20297;-45
2023/09/09 05:00:27;;;;;;;8.93;7.93;;;;;;;;;;4992582;28;20206;-49
2023/09/09 05:02:54;;;;;;;7.50;6.80;;;;;;;;;;4984995;28;20295;-46
2023/09/09 05:05:21;;;;;;;8.13;7.30;;;;;;;;;;4988065;28;20278;-48
2023/09/09 05:07:50;;;;;;;8.63;7.73;;;;;;;;;;4981789;28;20268;-48
2023/09/09 05:10:18;;;;;;;8.53;7.30;;;;;;;;;;4956119;28;20224;-45
2023/09/09 05:12:46;;;;;;;7.83;7.13;;;;;;;;;;4980215;28;20227;-44
2023/09/09 05:15:13;;;;;;;8.37;7.70;;;;;;;;;;4984849;28;20205;-45
2023/09/09 05:17:41;;;;;;;8.63;7.73;;;;;;;;;;4987361;28;20632;-52
2023/09/09 05:20:08;;;;;;;8.90;8.00;;;;;;;;;;4972214;28;20296;-52
2023/09/09 05:22:36;;;;;;;8.30;7.50;;;;;;;;;;4981037;28;20676;-50
2023/09/09 05:25:04;;;;;;;8.37;7.57;;;;;;;;;;4955959;28;20340;-49
2023/09/09 05:27:32;;;;;;;8.33;7.53;;;;;;;;;;4982971;28;20256;-51
2023/09/09 05:29:59;;;;;;;8.23;7.50;;;;;;;;;;4977146;28;20268;-50
2023/09/09 05:32:26;;;;;;;9.10;8.00;;;;;;;;;;4989306;28;20789;-52
2023/09/09 05:34:53;;;;;;;10.10;8.20;;;;;;;;;;4983134;28;20216;-47
2023/09/09 05:37:21;;;;;;;9.37;8.47;;;;;;;;;;4985077;28;20197;-51
2023/09/09 05:39:48;;;;;;;9.17;8.37;;;;;;;;;;4978911;28;20221;-47
2023/09/09 05:42:16;;;;;;;8.93;8.10;;;;;;;;;;4976639;28;20214;-47
2023/09/09 05:44:44;;;;;;;9.33;8.43;;;;;;;;;;4981526;28;20216;-49
2023/09/09 05:47:11;;;;;;;8.80;8.00;;;;;;;;;;4988160;28;20680;-47
2023/09/09 05:49:38;;;;;;;8.00;7.40;;;;;;;;;;4989125;28;20292;-56
2023/09/09 05:52:06;;;;;;;7.87;7.17;;;;;;;;;;4985886;28;20204;-50
2023/09/09 05:54:33;;;;;;;10.63;8.87;;;;;;;;;;4994483;28;20221;-55
2023/09/09 05:57:01;;;;;;;9.27;8.40;;;;;;;;;;4971118;28;20213;-48
2023/09/09 05:59:30;;;;;;;9.83;8.83;;;;;;;;;;4987881;28;20228;-55
2023/09/09 06:01:57;;;;;;;9.20;8.30;;;;;;;;;;4989260;28;20194;-47
2023/09/09 06:04:25;;;;;;;9.20;8.37;;;;;;;;;;4997280;28;20221;-52
2023/09/09 06:06:52;;;;;;;9.27;8.37;;;;;;;;;;4983565;28;20198;-52
2023/09/09 06:09:19;;;;;;;9.63;8.40;;;;;;;;;;4991450;28;20217;-48
2023/09/09 06:11:46;;;;;;;9.23;8.33;;;;;;;;;;4955640;28;20251;-49
2023/09/09 06:14:14;;;;;;;9.67;8.67;;;;;;;;;;4991829;28;20218;-51
2023/09/09 06:16:42;;;;;;;8.30;7.50;;;;;;;;;;4989100;28;20652;-52
2023/09/09 06:19:10;;;;;;;9.07;8.27;;;;;;;;;;4995057;28;21444;-47
2023/09/09 06:21:37;;;;;;;9.23;8.43;;;;;;;;;;4989522;28;20219;-55
2023/09/09 06:24:04;;;;;;;8.60;7.83;;;;;;;;;;4992466;28;20212;-46
2023/09/09 06:26:33;;;;;;;11.33;8.40;;;;;;;;;;4977782;28;20196;-53
2023/09/09 06:29:01;;;;;;;9.33;8.43;;;;;;;;;;4982875;28;20194;-47
2023/09/09 06:31:29;;;;;;;8.60;7.90;;;;;;;;;;4990679;28;20197;-53
2023/09/09 06:34:03;;;;;;;9.17;8.17;;;;;;;;;;4990993;28;20209;-47
2023/09/09 06:36:33;;;;;;;10.83;8.80;;;;;;;;;;4988610;28;20205;-54
2023/09/09 06:39:03;;;;;;;10.93;8.43;;;;;;;;;;4995604;28;20213;-52
2023/09/09 06:41:33;;;;;;;9.40;8.50;;;;;;;;;;4982066;28;20899;-56
2023/09/09 06:44:04;;;;;;;9.03;8.10;;;;;;;;;;4975552;28;20220;-52
2023/09/09 06:46:34;;;;;;;9.23;8.43;;;;;;;;;;4981854;28;20201;-55
2023/09/09 06:49:04;;;;;;;9.70;8.70;;;;;;;;;;4975977;28;20252;-52
2023/09/09 06:51:34;;;;;;;10.03;8.23;;;;;;;;;;4978676;28;20815;-53
2023/09/09 06:54:03;;;;;;;9.33;8.20;;;;;;;;;;4977742;28;20225;-55
2023/09/09 06:56:33;;;;;;;8.97;8.07;;;;;;;;;;4980559;28;20233;-56
2023/09/09 06:59:03;;;;;;;9.20;8.40;;;;;;;;;;4968085;28;20314;-51
2023/09/09 07:01:33;;;;;;;8.30;7.50;;;;;;;;;;4983631;28;20205;-54
2023/09/09 07:04:02;;;;;;;9.80;8.60;;;17.60;99.90;;;;;;4985167;28;20216;-55
2023/09/09 07:06:28;;;;;;;9.37;7.73;;;17.80;99.90;;;;;;4993289;28;20299;-47
2023/09/09 07:08:55;;;;;;;9.73;8.83;;;17.90;99.90;;;;;;5000219;28;20201;-53
2023/09/09 07:11:22;;;;;;;9.83;8.27;;;18.00;99.90;;;;;;4990585;28;20228;-50
2023/09/09 07:13:49;;;;;;;8.40;7.40;;;18.10;99.90;;;;;;4964262;28;20225;-49
2023/09/09 07:16:16;;;;;;;8.73;7.93;;;18.30;99.90;;;;;;4979043;28;20264;-49
2023/09/09 07:18:43;;;;;;;8.50;7.70;;;18.30;99.90;;;;;;4996515;28;20200;-52
2023/09/09 07:21:11;;;;;;;8.30;7.50;;;18.40;99.90;;;;;;4990961;28;20248;-51
2023/09/09 07:23:38;;;;;;;9.43;7.97;;;18.40;99.90;;;;;;4984932;28;20591;-47
2023/09/09 07:26:04;;;;;;;9.40;7.93;;;18.50;99.90;;;;;;4996684;28;20602;-52
2023/09/09 07:28:31;;;;;;;9.33;7.83;;;18.70;99.90;;;;;;4957885;28;20956;-52
2023/09/09 07:31:02;;;;;;;8.30;7.50;;;18.90;99.90;;;;;;4993660;28;20190;-47
2023/09/09 07:33:29;;;;;;;7.90;7.10;;;19.00;99.90;;;;;;4974896;28;20241;-52
2023/09/09 07:35:56;;;;;;;9.73;8.03;;;19.00;99.90;;;;;;4986573;28;20331;-51
2023/09/09 07:38:24;;;;;;;9.50;7.10;;;19.20;99.90;;;;;;4983087;28;20667;-53
2023/09/09 07:40:56;;;;;;;8.17;7.43;;;19.20;99.90;;;;;;4985444;28;20213;-46
2023/09/09 07:43:23;;;;;;;8.63;7.80;;;19.30;99.90;;;;;;4978458;28;20225;-54
2023/09/09 07:45:51;;;;;;;8.77;7.00;;;19.50;99.90;;;;;;4972930;28;20212;-50
2023/09/09 07:48:18;;;;;;;8.77;6.97;;;19.60;99.90;;;;;;4991127;28;20204;-55
2023/09/09 07:50:51;;;;;;;7.47;6.77;;;19.80;99.90;;;;;;4980028;28;20260;-51
2023/09/09 07:53:17;;;;;;;9.23;7.17;;;19.90;99.90;;;;;;4967796;28;20228;-49
2023/09/09 07:55:47;;;;;;;8.20;7.03;;;20.00;99.90;;;;;;4981441;28;20223;-48
2023/09/09 07:58:14;;;;;;;7.83;7.10;;;20.10;99.90;;;;;;4970553;28;20206;-53
2023/09/09 08:00:41;;;;;;;8.07;7.37;;;20.20;99.90;;;;;;4960726;28;20232;-48
2023/09/09 08:03:10;;;;;;;7.73;7.13;;;20.30;99.90;;;;;;4985307;28;20739;-52
2023/09/09 08:05:37;;;;;;;7.00;6.50;;;20.30;99.90;;;;;;4979521;28;20220;-47
2023/09/09 08:08:05;;;;;;;8.00;7.20;;;20.50;99.90;;;;;;4974464;28;20201;-53
2023/09/09 08:10:32;;;;;;;7.40;6.70;;;20.60;99.90;;;;;;4977101;28;20973;-46
2023/09/09 08:13:00;;;;;;;7.87;6.40;;;20.80;99.90;;;;;;4972657;28;20256;-53
2023/09/09 08:15:27;;;;;;;7.27;6.60;;;20.90;99.90;;;;;;4953054;28;20254;-47
2023/09/09 08:17:54;;;;;;;6.73;6.10;;;21.00;99.90;;;;;;4980291;28;20256;-46
2023/09/09 08:20:21;;;;;;;7.47;6.87;;;21.10;99.90;;;;;;4979332;28;20869;-48
2023/09/09 08:22:49;;;;;;;8.70;6.63;;;21.20;99.90;;;;;;4983381;28;20298;-51
2023/09/09 08:25:16;;;;;;;8.10;7.30;;;21.40;99.90;;;;;;4973616;28;20660;-53
2023/09/09 08:27:42;;;;;;;8.63;6.37;;;21.40;99.90;;;;;;4996025;28;20229;-45
2023/09/09 08:30:13;;;;;;;7.10;5.70;;;21.50;99.90;;;;;;4959910;28;20210;-51
2023/09/09 08:32:41;;;;;;;7.73;7.03;;;21.70;99.90;;;;;;4986465;28;20204;-48
2023/09/09 08:35:08;;;;;;;7.33;6.47;;;21.80;99.90;;;;;;4982297;28;20209;-54
2023/09/09 08:37:34;;;;;;;8.47;6.70;;;21.90;99.90;;;;;;4973648;28;20201;-45
2023/09/09 08:40:02;;;;;;;12.30;7.07;;;22.00;99.90;;;;;;4973514;28;20707;-53
2023/09/09 08:42:39;;;;;;;6.40;5.83;;;22.10;99.90;;;;;;4978004;28;20208;-47
2023/09/09 08:45:13;;;;;;;8.90;6.53;;;22.20;99.90;;;;;;4957259;28;20674;-54
2023/09/09 08:47:42;;;;;;;6.90;6.37;;;22.40;99.90;;;;;;4982012;28;20259;-48
2023/09/09 08:50:10;;;;;;;7.10;6.35;;;22.40;99.90;;;;;;4971901;28;20211;-51
2023/09/09 08:52:38;;;;;;;8.13;6.50;;;22.60;99.90;;;;;;4976632;28;20285;-51
2023/09/09 08:55:05;;;;;;;6.33;5.73;;;22.70;99.90;;;;;;4967990;28;20505;-51
2023/09/09 08:57:32;;;;;;;9.03;6.87;;;22.80;99.90;;;;;;4977784;28;20287;-52
2023/09/09 09:00:02;;;;;;;7.07;6.37;;;22.80;99.90;;;;;;4961097;28;20194;-55
2023/09/09 09:02:30;;;;;;;7.15;6.45;;;23.00;99.90;;;;;;4975091;28;20204;-48
2023/09/09 09:04:58;;;;;;;7.10;6.50;;;23.10;99.90;;;;;;4978419;28;20612;-52
2023/09/09 09:07:27;;;;;;;7.32;5.75;;;23.10;99.90;;;;;;4981556;28;20205;-51
2023/09/09 09:09:55;;;;;;;6.43;5.78;;;23.30;99.90;;;;;;4970850;28;20232;-50
2023/09/09 09:12:22;;;;;;;9.13;6.13;;;23.40;99.90;;;;;;4975203;28;20224;-47
2023/09/09 09:14:49;;;;;;;6.95;6.40;;;23.50;99.90;;;;;;4972166;28;20229;-53
2023/09/09 09:17:17;;;;;;;8.57;6.10;;;23.50;99.90;;;;;;4967188;28;20251;-50
2023/09/09 09:19:45;;;;;;;6.82;6.20;;;23.60;99.90;;;;;;4968161;28;20201;-55
2023/09/09 09:22:13;;;;;;;12.15;6.18;;;23.70;99.90;;;;;;4980305;28;20217;-48
2023/09/09 09:24:44;;;;;;;8.45;5.93;;;23.90;99.90;;;;;;4974985;28;20769;-48
2023/09/09 09:27:11;;;;;;;5.97;5.47;;;23.90;99.90;;;;;;4976090;28;20303;-52
2023/09/09 09:29:39;;;;;;;6.40;5.80;;;24.00;99.90;;;;;;4987597;28;20205;-49
2023/09/09 09:32:07;;;;;;;6.15;5.55;;;24.00;99.90;;;;;;4959029;28;20190;-50
2023/09/09 09:34:34;;;;;;;7.25;6.10;;;24.10;99.90;;;;;;4973130;28;20249;-48
2023/09/09 09:37:09;;;;;;;6.22;5.63;;;24.20;99.90;;;;;;4977614;28;20228;-52
2023/09/09 09:39:36;;;;;;;5.90;5.30;;;24.30;99.90;;;;;;4953405;28;20232;-48
2023/09/09 09:42:04;;;;;;;7.43;5.88;;;24.50;99.90;;;;;;4991194;28;20213;-48
2023/09/09 09:44:33;;;;;;;5.45;4.95;;;;;;;;;;4977990;28;20287;-55
2023/09/09 09:47:01;;;;;;;6.60;5.95;;;;;;;;;;4962407;28;20252;-51
2023/09/09 09:49:35;;;;;;;5.95;5.38;;;;;;;;;;4975404;28;20204;-53
2023/09/09 09:52:05;;;;;;;6.45;5.80;;;;;;;;;;4989066;28;20247;-46
2023/09/09 09:54:33;;;;;;;5.90;5.22;;;;;;;;;;4973385;28;20276;-53
2023/09/09 09:57:01;;;;;;;5.75;5.35;;;25.30;99.90;;;;;;4988787;28;20660;-51
2023/09/09 09:59:31;;;;;;;6.45;5.45;;;;;;;;;;4974774;28;20226;-53
2023/09/09 10:01:59;;;;;;;10.50;5.70;;;26.10;99.90;;;;;;4964895;28;20217;-49
2023/09/09 10:04:27;;;;;;;6.90;6.10;;;;;;;;;;4976297;28;20221;-54
2023/09/09 10:06:58;;;;;;;6.13;5.55;;;25.70;99.90;;;;;;4977568;28;20197;-50
2023/09/09 10:09:34;;;;;;;5.40;5.00;;;25.60;99.90;;;;;;4979480;28;20201;-51
2023/09/09 10:12:06;;;;;;;6.45;5.85;;;25.70;99.90;;;;;;4982142;28;20876;-47
2023/09/09 10:14:35;;;;;;;5.85;5.32;;;25.80;99.90;;;;;;4975951;28;20225;-55
2023/09/09 10:17:05;;;;;;;5.70;5.20;;;25.80;99.90;;;;;;4965082;28;20224;-44
2023/09/09 10:19:34;;;;;;;5.95;5.25;;;;;;;;;;4974390;28;20224;-56
2023/09/09 10:22:02;;;;;;;7.78;5.32;;;;;;;;;;4975714;28;20306;-54
2023/09/09 10:24:32;;;;;;;7.28;5.22;;;26.00;99.90;;;;;;4973911;28;20210;-49
2023/09/09 10:27:01;;;;;;;5.35;4.85;;;26.50;99.90;;;;;;4975301;28;20205;-53
2023/09/09 10:29:30;;;;;;;5.03;4.45;;;25.80;99.90;;;;;;4969278;28;20259;-51
2023/09/09 10:31:59;;;;;;;6.07;5.50;;;26.50;99.90;;;;;;4983403;28;20194;-54
2023/09/09 10:34:27;;;;;;;5.65;5.15;;;26.60;99.90;;;;;;4975049;28;20231;-48
2023/09/09 10:36:55;;;;;;;6.20;4.82;;;26.70;99.90;;;;;;4985766;28;20201;-48
2023/09/09 10:39:23;;;;;;;5.82;5.35;;;26.80;99.90;;;;;;4983368;28;20287;-46
2023/09/09 10:41:52;;;;;;;6.45;4.97;;;26.50;99.90;;;;;;4980995;28;20217;-51
2023/09/09 10:44:19;;;;;;;5.28;4.32;;;26.60;99.90;;;;;;4977363;28;20205;-53
2023/09/09 10:46:48;;;;;;;5.50;5.00;;;;;;;;;;4990379;28;20198;-51
2023/09/09 10:49:18;;;;;;;5.38;4.97;;;;;;;;;;4964975;28;20206;-50
2023/09/09 10:51:49;;;;;;;5.93;5.10;;;27.10;99.90;;;;;;4985062;28;20213;-49
2023/09/09 10:54:18;;;;;;;7.97;5.18;;;;;;;;;;4984848;28;20220;-52
2023/09/09 10:56:47;;;;;;;5.18;4.78;;;;;;;;;;4984425;28;20205;-51
2023/09/09 10:59:21;;;;;;;6.93;5.32;;;;;;;;;;4980495;28;20254;-53
2023/09/09 11:01:49;;;;;;;5.78;5.22;;;27.50;99.90;;;;;;4982998;28;20347;-47
2023/09/09 11:04:25;;;;;;;5.55;5.00;;;;;;;;;;4963165;28;20225;-48
2023/09/09 11:07:00;;;;;;;5.80;5.22;;;27.40;99.90;;;;;;4986170;28;20197;-50
2023/09/09 11:09:29;;;;;;;5.70;5.30;;;27.50;99.90;;;;;;4971020;28;20283;-48
2023/09/09 11:11:57;;;;;;;5.68;5.18;;;27.80;99.90;;;;;;4980091;28;20197;-55
2023/09/09 11:14:29;;;;;;;5.43;4.88;;;;;;;;;;4993514;28;20267;-51
2023/09/09 11:16:56;;;;;;;6.28;4.68;;;28.00;99.90;;;;;;4984866;28;20193;-53
2023/09/09 11:19:24;;;;;;;6.32;5.80;;;27.80;99.90;;;;;;4976870;28;20317;-49
2023/09/09 11:21:53;;;;;;;5.97;5.30;;;;;;;;;;4993246;28;20217;-52
2023/09/09 11:24:22;;;;;;;5.40;5.00;;;;;;;;;;4994541;28;20230;-49
2023/09/09 11:26:51;;;;;;;7.10;4.70;;;;;;;;;;4985535;28;20202;-55
2023/09/09 11:29:19;;;;;;;5.55;5.05;;;;;;;;;;4999767;28;20258;-49
2023/09/09 11:31:51;;;;;;;5.53;5.00;;;;;;;;;;4984905;28;20288;-52
2023/09/09 11:34:18;;;;;;;6.20;5.60;;;;;;;;;;4966606;28;20284;-51
2023/09/09 11:36:48;;;;;;;5.82;5.20;;;;;;;;;;4992501;28;20207;-50
2023/09/09 11:39:15;;;;;;;8.70;5.32;;;;;;;;;;4997924;28;20206;-51
2023/09/09 11:41:42;;;;;;;5.72;4.85;;;;;;;;;;4993647;28;20788;-48
2023/09/09 11:44:10;;;;;;;6.30;5.28;;;;;;;;;;4981806;28;20240;-50
2023/09/09 11:46:37;;;;;;;4.82;4.22;;;;;;;;;;4992669;28;20555;-51
2023/09/09 11:49:06;;;;;;;4.38;4.05;;;;;;;;;;4984495;28;20212;-48
2023/09/09 11:51:33;;;;;;;5.00;4.63;;;;;;;;;;4968520;28;20274;-53
2023/09/09 11:54:01;;;;;;;5.60;5.10;;;;;;;;;;4985911;28;20232;-46
2023/09/09 11:56:32;;;;;;;5.80;5.35;;;;;;;;;;4985533;28;20221;-55
2023/09/09 11:59:01;;;;;;;5.57;5.10;;;;;;;;;;4986127;28;20197;-50
2023/09/09 12:01:28;;;;;;;4.88;4.47;;;;;;;;;;4987309;28;20292;-51
2023/09/09 12:04:07;;;;;;;5.63;5.10;;;;;;;;;;4991455;28;20627;-50
2023/09/09 12:06:38;;;;;;;5.10;4.60;;;;;;;;;;4963170;28;20217;-54
2023/09/09 12:09:07;;;;;;;5.03;4.57;;;;;;;;;;4987844;28;20205;-49
2023/09/09 12:11:36;;;;;;;4.93;4.63;;;;;;;;;;4994176;28;20193;-50
2023/09/09 12:14:04;;;;;;;4.75;4.45;;;;;;;;;;4984456;28;20225;-47
2023/09/09 12:16:31;;;;;;;5.00;4.57;;;;;;;;;;4994627;28;20209;-55
2023/09/09 12:19:01;;;;;;;4.70;4.30;;;;;;;;;;4986141;28;20255;-50
2023/09/09 12:21:31;;;;;;;4.88;4.57;;;;;;;;;;4972522;28;20646;-55
2023/09/09 12:24:02;;;;;;;5.15;4.63;;;;;;;;;;4988062;28;20220;-48
2023/09/09 12:26:32;;;;;;;4.78;4.35;;;;;;;;;;4984801;28;20263;-53
2023/09/09 12:29:09;;;;;;;6.40;4.53;;;;;;;;;;4983317;28;20937;-52
2023/09/09 12:31:52;;;;;;;8.43;4.32;;;;;;;;;;4981801;28;20220;-48
2023/09/09 12:34:21;;;;;;;5.25;4.75;;;;;;;;;;4988640;28;20221;-55
2023/09/09 12:36:49;;;;;;;5.00;4.60;;;;;;;;;;4958254;28;20303;-50
2023/09/09 12:39:24;;;;;;;6.13;4.47;;;;;;;;;;4990733;28;20194;-55
2023/09/09 12:41:59;;;;;;;4.53;4.22;;;;;;;;;;4990551;28;20224;-50
2023/09/09 12:44:26;;;;;;;4.63;3.97;;;;;;;;;;4993284;28;20228;-51
2023/09/09 12:46:53;;;;;;;5.03;4.47;;;;;;;;;;4989501;28;20682;-46
2023/09/09 12:49:21;;;;;;;4.47;4.07;;;;;;;;;;4989438;28;20192;-54
2023/09/09 12:51:48;;;;;;;3.78;3.58;;;;;;;;;;4964199;28;20241;-50
2023/09/09 12:54:15;;;;;;;4.55;4.18;;;;;;;;;;4990048;28;20986;-54
2023/09/09 12:56:43;;;;;;;4.28;3.97;;;;;;;;;;4993009;28;20268;-49
2023/09/09 12:59:11;;;;;;;4.63;4.32;;;;;;;;;;4989417;28;20228;-51
2023/09/09 13:01:39;;;;;;;4.82;4.32;;;;;;;;;;4990015;28;20227;-47
2023/09/09 13:04:08;;;;;;;4.30;4.00;;;;;;;;;;4974191;28;20357;-55
2023/09/09 13:06:37;;;;;;;6.28;4.60;;;;;;;;;;4974235;28;20205;-53
2023/09/09 13:09:05;;;;;;;4.93;4.15;;;;;;;;;;4973338;28;20193;-54
2023/09/09 13:11:32;;;;;;;4.28;3.90;;;29.80;99.90;;;;;;4993683;28;20615;-55
2023/09/09 13:14:03;;;;;;;4.20;3.90;;;30.20;81.60;;;;;;4985867;28;20197;-53
2023/09/09 13:16:30;;;;;;;4.30;3.92;;;30.30;80.40;;;;;;4986427;28;20208;-54
2023/09/09 13:18:57;;;;;;;5.03;4.53;;;30.20;80.90;;;;;;4978342;28;20200;-54
2023/09/09 13:21:24;;;;;;;4.93;4.10;;;;;;;;;;4986915;28;20725;-52
2023/09/09 13:23:51;;;;;;;4.70;4.28;;;;;;;;;;4970455;28;20352;-49
2023/09/09 13:26:18;;;;;;;4.25;3.85;;;31.80;79.80;;;;;;4991428;28;20197;-55
2023/09/09 13:28:45;;;;;;;4.13;3.83;;;31.10;78.50;;;;;;4992138;28;20276;-49
2023/09/09 13:31:13;;;;;;;4.57;4.18;;;31.30;77.70;;;;;;4990261;28;20193;-54
2023/09/09 13:33:40;;;;;;;4.72;4.30;;;31.90;78.40;;;;;;4975761;28;20972;-53
2023/09/09 13:36:06;;;;;;;5.15;4.75;;;32.40;75.60;;;;;;4994520;28;20252;-52
2023/09/09 13:38:33;;;;;;;4.68;4.28;;;32.70;74.50;;;;;;4956690;28;20241;-51
2023/09/09 13:41:00;;;;;;;4.30;4.00;;;32.70;71.30;;;;;;4989395;28;20655;-54
2023/09/09 13:43:27;;;;;;;4.65;4.25;;;32.70;70.70;;;;;;4984229;28;20224;-50
2023/09/09 13:45:54;;;;;;;4.55;4.10;;;32.70;69.00;;;;;;4983946;28;20196;-51
2023/09/09 13:48:22;;;;;;;4.20;3.90;;;33.10;67.80;;;;;;4984136;28;20209;-50
2023/09/09 13:50:49;;;;;;;4.60;4.30;;;33.30;66.90;;;;;;4990325;28;20197;-48
2023/09/09 13:53:16;;;;;;;4.20;3.90;;;33.70;66.40;;;;;;4980887;28;20225;-47
2023/09/09 13:55:43;;;;;;;4.90;4.50;;;33.70;64.80;;;;;;4979027;28;20247;-50
2023/09/09 13:58:10;;;;;;;4.82;3.67;;;33.90;64.30;;;;;;4992634;28;20211;-50
2023/09/09 14:00:36;;;;;;;4.90;4.43;;;34.10;63.90;;;;;;4987464;28;20282;-55
2023/09/09 14:03:04;;;;;;;4.55;4.15;;;34.10;62.50;;;;;;4992688;28;20224;-52
2023/09/09 14:05:32;;;;;;;4.57;4.15;;;34.10;61.90;;;;;;4973745;28;20208;-53